createdAt,value
2016-07-20T00:00:49.296Z,62.12
2016-07-20T00:01:49.316Z,62.32
2016-07-20T00:02:49.341Z,62.12
2016-07-20T00:03:49.362Z,62.96
2016-07-20T00:04:49.382Z,62.41
2016-07-20T00:05:50.121Z,62.67
2016-07-20T00:06:49.424Z,62.96
2016-07-20T00:07:49.443Z,62.67
2016-07-20T00:08:49.467Z,62.87
2016-07-20T00:09:49.490Z,62.9
2016-07-20T00:10:49.508Z,62.77
2016-07-20T00:11:49.532Z,63.06
2016-07-20T00:12:49.551Z,62.32
2016-07-20T00:13:49.570Z,62.12
2016-07-20T00:14:50.311Z,62.87
2016-07-20T00:15:49.616Z,62.87
2016-07-20T00:16:50.355Z,63.06
2016-07-20T00:17:49.659Z,62.77
2016-07-20T00:18:49.679Z,62.67
2016-07-20T00:19:50.418Z,62.77
2016-07-20T00:20:50.438Z,62.12
2016-07-20T00:21:49.741Z,62.09
2016-07-20T00:22:49.767Z,62.9
2016-07-20T00:23:49.786Z,62.87
2016-07-20T00:24:49.807Z,62.8
2016-07-20T00:25:49.838Z,62.87
2016-07-20T00:26:49.851Z,62.8
2016-07-20T00:27:49.871Z,62.9
2016-07-20T00:28:49.896Z,62.96
2016-07-20T00:29:49.913Z,62.87
2016-07-20T00:30:49.933Z,62.99
2016-07-20T00:31:49.955Z,62.87
2016-07-20T00:32:49.979Z,62.9
2016-07-20T00:33:50.723Z,62.12
2016-07-20T00:34:50.019Z,62.87
2016-07-20T00:35:50.045Z,62.9
2016-07-20T00:36:50.065Z,62.67
2016-07-20T00:37:50.084Z,62.7
2016-07-20T00:38:50.107Z,62.77
2016-07-20T00:39:50.842Z,62.77
2016-07-20T00:40:50.149Z,62.87
2016-07-20T00:41:50.168Z,62.96
2016-07-20T00:42:50.192Z,62.96
2016-07-20T00:43:50.929Z,62.87
2016-07-20T00:44:50.236Z,62.77
2016-07-20T00:45:50.971Z,62.96
2016-07-20T00:46:50.279Z,62.77
2016-07-20T00:47:50.304Z,62.96
2016-07-20T00:48:50.319Z,62.96
2016-07-20T00:49:50.339Z,62.6
2016-07-20T00:50:50.361Z,62.12
2016-07-20T00:51:51.098Z,62.38
2016-07-20T00:52:50.405Z,62.29
2016-07-20T00:53:51.143Z,62.48
2016-07-20T00:54:51.163Z,62.09
2016-07-20T00:55:51.184Z,62.29
2016-07-20T00:56:50.488Z,62.9
2016-07-20T00:57:50.512Z,62.6
2016-07-20T00:58:50.533Z,62.77
2016-07-20T00:59:50.556Z,62.32
2016-07-20T01:00:50.574Z,62.9
2016-07-20T01:01:50.596Z,62.48
2016-07-20T01:02:50.623Z,62.57
2016-07-20T01:03:50.639Z,62.57
2016-07-20T01:04:50.661Z,62.67
2016-07-20T01:05:51.398Z,62.09
2016-07-20T01:06:50.702Z,62.67
2016-07-20T01:07:51.443Z,62.57
2016-07-20T01:08:50.747Z,62.41
2016-07-20T01:09:51.485Z,62.29
2016-07-20T01:10:50.787Z,62.9
2016-07-20T01:11:51.527Z,62.77
2016-07-20T01:12:50.830Z,62.57
2016-07-20T01:13:51.570Z,62.51
2016-07-20T01:14:50.871Z,62.38
2016-07-20T01:15:50.895Z,62.41
2016-07-20T01:16:50.916Z,62.77
2016-07-20T01:17:50.935Z,62.7
2016-07-20T01:18:50.957Z,62.6
2016-07-20T01:19:51.705Z,62.87
2016-07-20T01:20:51.721Z,62.09
2016-07-20T01:21:51.028Z,62.38
2016-07-20T01:22:51.047Z,62.8
2016-07-20T01:23:51.781Z,62.77
2016-07-20T01:24:51.085Z,62.48
2016-07-20T01:25:51.107Z,62.19
2016-07-20T01:26:51.846Z,62.38
2016-07-20T01:27:51.153Z,62.38
2016-07-20T01:28:51.172Z,62.41
2016-07-20T01:29:51.193Z,62.87
2016-07-20T01:30:51.214Z,62.12
2016-07-20T01:31:51.244Z,62.38
2016-07-20T01:32:51.255Z,62.38
2016-07-20T01:33:51.281Z,62.38
2016-07-20T01:34:51.299Z,62.41
2016-07-20T01:35:51.320Z,62.41
2016-07-20T01:36:52.058Z,62.48
2016-07-20T01:37:51.362Z,62.22
2016-07-20T01:38:51.383Z,62.22
2016-07-20T01:39:51.413Z,62.32
2016-07-20T01:40:52.144Z,62.32
2016-07-20T01:41:51.449Z,62.38
2016-07-20T01:42:51.470Z,62.38
2016-07-20T01:43:51.489Z,62.38
2016-07-20T01:44:51.509Z,62.38
2016-07-20T01:45:51.533Z,62.51
2016-07-20T01:46:51.554Z,62.41
2016-07-20T01:47:51.575Z,62.51
2016-07-20T01:48:51.597Z,62.51
2016-07-20T01:49:51.619Z,62.32
2016-07-20T01:50:51.640Z,62.41
2016-07-20T01:51:51.663Z,62.51
2016-07-20T01:52:51.682Z,62.29
2016-07-20T01:53:51.707Z,62.38
2016-07-20T01:54:51.723Z,62.19
2016-07-20T01:55:51.745Z,62.38
2016-07-20T01:56:51.768Z,62.22
2016-07-20T01:57:52.506Z,62.29
2016-07-20T01:58:51.809Z,62.32
2016-07-20T01:59:51.830Z,62.09
2016-07-20T02:00:51.851Z,62.19
2016-07-20T02:01:51.873Z,62.41
2016-07-20T02:02:52.613Z,62.19
2016-07-20T02:03:52.633Z,62.6
2016-07-20T02:04:51.938Z,62.48
2016-07-20T02:05:51.961Z,62.51
2016-07-20T02:06:52.698Z,62.41
2016-07-20T02:07:52.004Z,62.57
2016-07-20T02:08:52.026Z,62.48
2016-07-20T02:09:52.047Z,62
2016-07-20T02:10:52.076Z,61.9
2016-07-20T02:11:52.085Z,62.22
2016-07-20T02:12:52.830Z,62.09
2016-07-20T02:13:52.845Z,62
2016-07-20T02:14:52.151Z,62.03
2016-07-20T02:15:52.174Z,62.03
2016-07-20T02:16:52.189Z,61.93
2016-07-20T02:17:52.214Z,61.83
2016-07-20T02:18:52.937Z,61.8
2016-07-20T02:19:52.249Z,62.09
2016-07-20T02:20:52.272Z,62
2016-07-20T02:21:52.302Z,62.12
2016-07-20T02:22:52.321Z,61.74
2016-07-20T02:23:52.330Z,62.09
2016-07-20T02:24:53.079Z,62.09
2016-07-20T02:25:52.382Z,61.8
2016-07-20T02:26:52.402Z,61.74
2016-07-20T02:27:52.424Z,61.8
2016-07-20T02:28:52.441Z,61.55
2016-07-20T02:29:52.457Z,61.71
2016-07-20T02:30:52.487Z,61.74
2016-07-20T02:31:52.513Z,62
2016-07-20T02:32:52.536Z,61.8
2016-07-20T02:33:52.549Z,61.74
2016-07-20T02:34:52.569Z,61.83
2016-07-20T02:35:52.599Z,62.12
2016-07-20T02:36:52.611Z,61.71
2016-07-20T02:37:53.346Z,61.83
2016-07-20T02:38:52.655Z,61.8
2016-07-20T02:39:53.399Z,61.93
2016-07-20T02:40:52.696Z,61.61
2016-07-20T02:41:52.729Z,61.71
2016-07-20T02:42:52.741Z,61.8
2016-07-20T02:43:52.757Z,62
2016-07-20T02:44:53.496Z,61.74
2016-07-20T02:45:52.813Z,61.74
2016-07-20T02:46:52.822Z,62.03
2016-07-20T02:47:52.846Z,61.71
2016-07-20T02:48:52.886Z,61.83
2016-07-20T02:49:53.600Z,61.65
2016-07-20T02:50:53.616Z,62.09
2016-07-20T02:51:52.928Z,61.74
2016-07-20T02:52:52.957Z,61.74
2016-07-20T02:53:53.699Z,61.74
2016-07-20T02:54:53.708Z,61.71
2016-07-20T02:55:53.015Z,62.19
2016-07-20T02:56:53.752Z,61.93
2016-07-20T02:57:53.765Z,62.32
2016-07-20T02:58:53.083Z,61.83
2016-07-20T02:59:53.822Z,61.83
2016-07-20T03:00:53.135Z,61.65
2016-07-20T03:01:53.143Z,62.12
2016-07-20T03:02:53.171Z,62.12
2016-07-20T03:03:53.183Z,61.61
2016-07-20T03:04:53.925Z,62.38
2016-07-20T03:05:53.222Z,61.9
2016-07-20T03:06:53.248Z,61.8
2016-07-20T03:07:53.271Z,62.19
2016-07-20T03:08:54.004Z,61.8
2016-07-20T03:09:54.020Z,61.61
2016-07-20T03:10:53.338Z,61.83
2016-07-20T03:11:53.364Z,62.19
2016-07-20T03:12:53.375Z,61.74
2016-07-20T03:13:53.407Z,62.12
2016-07-20T03:14:53.423Z,61.9
2016-07-20T03:15:54.165Z,62.22
2016-07-20T03:16:53.464Z,62.32
2016-07-20T03:17:53.487Z,62.29
2016-07-20T03:18:53.504Z,62.03
2016-07-20T03:19:53.540Z,62.38
2016-07-20T03:20:53.543Z,62.19
2016-07-20T03:21:53.570Z,61.74
2016-07-20T03:22:53.594Z,62.03
2016-07-20T03:23:53.616Z,62.38
2016-07-20T03:24:53.633Z,61.8
2016-07-20T03:25:54.382Z,61.65
2016-07-20T03:26:53.683Z,61.93
2016-07-20T03:27:53.696Z,61.83
2016-07-20T03:28:54.435Z,61.93
2016-07-20T03:29:53.746Z,62.03
2016-07-20T03:30:53.759Z,61.9
2016-07-20T03:31:53.784Z,61.74
2016-07-20T03:32:53.807Z,61.71
2016-07-20T03:33:54.543Z,62.03
2016-07-20T03:34:53.854Z,61.93
2016-07-20T03:35:53.874Z,61.83
2016-07-20T03:36:54.600Z,61.83
2016-07-20T03:37:53.911Z,61.74
2016-07-20T03:38:53.934Z,62.12
2016-07-20T03:39:53.950Z,62.03
2016-07-20T03:40:53.971Z,62
2016-07-20T03:41:53.988Z,61.93
2016-07-20T03:42:54.017Z,62
2016-07-20T03:43:54.040Z,61.93
2016-07-20T03:44:54.060Z,62
2016-07-20T03:45:54.083Z,61.93
2016-07-20T03:46:54.107Z,61.93
2016-07-20T03:47:54.132Z,61.93
2016-07-20T03:48:54.142Z,62
2016-07-20T03:49:54.887Z,62.03
2016-07-20T03:50:54.186Z,62.19
2016-07-20T03:51:54.208Z,61.8
2016-07-20T03:52:54.227Z,61.71
2016-07-20T03:53:54.971Z,61.8
2016-07-20T03:54:54.272Z,61.71
2016-07-20T03:55:54.996Z,61.8
2016-07-20T03:56:54.311Z,62
2016-07-20T03:57:54.334Z,62
2016-07-20T03:58:54.361Z,61.8
2016-07-20T03:59:54.378Z,61.93
2016-07-20T04:00:54.415Z,61.9
2016-07-20T04:01:54.425Z,61.93
2016-07-20T04:02:54.437Z,62.03
2016-07-20T04:03:54.454Z,62.03
2016-07-20T04:04:54.482Z,61.93
2016-07-20T04:05:55.210Z,61.8
2016-07-20T04:06:55.238Z,62
2016-07-20T04:07:54.542Z,62.09
2016-07-20T04:08:54.561Z,61.71
2016-07-20T04:09:55.296Z,61.71
2016-07-20T04:10:55.328Z,62.03
2016-07-20T04:11:55.344Z,62.03
2016-07-20T04:12:55.372Z,62.09
2016-07-20T04:13:54.689Z,62.32
2016-07-20T04:14:54.698Z,62.09
2016-07-20T04:15:55.434Z,61.83
2016-07-20T04:16:54.732Z,61.83
2016-07-20T04:17:54.756Z,62
2016-07-20T04:18:55.504Z,61.93
2016-07-20T04:19:54.804Z,62.09
2016-07-20T04:20:54.815Z,61.74
2016-07-20T04:21:55.552Z,62.03
2016-07-20T04:22:54.874Z,62.09
2016-07-20T04:23:54.895Z,61.71
2016-07-20T04:24:54.911Z,62.29
2016-07-20T04:25:54.923Z,62.09
2016-07-20T04:26:54.956Z,61.74
2016-07-20T04:27:54.971Z,61.61
2016-07-20T04:28:55.027Z,61.71
2016-07-20T04:29:55.739Z,62.67
2016-07-20T04:30:55.039Z,61.65
2016-07-20T04:31:55.061Z,61.61
2016-07-20T04:32:55.799Z,61.8
2016-07-20T04:33:55.098Z,61.71
2016-07-20T04:34:55.120Z,61.71
2016-07-20T04:35:55.147Z,61.74
2016-07-20T04:36:55.884Z,61.71
2016-07-20T04:37:55.180Z,62
2016-07-20T04:38:55.207Z,62
2016-07-20T04:39:55.932Z,61.9
2016-07-20T04:40:55.242Z,61.71
2016-07-20T04:41:55.274Z,62.8
2016-07-20T04:42:55.282Z,61.83
2016-07-20T04:43:55.318Z,61.9
2016-07-20T04:44:55.338Z,61.83
2016-07-20T04:45:56.076Z,62.38
2016-07-20T04:46:55.368Z,62.19
2016-07-20T04:47:55.393Z,62.48
2016-07-20T04:48:55.420Z,62.19
2016-07-20T04:49:55.445Z,61.9
2016-07-20T04:50:55.462Z,62.38
2016-07-20T04:51:55.483Z,62.48
2016-07-20T04:52:55.500Z,62.38
2016-07-20T04:53:55.528Z,62.32
2016-07-20T04:54:55.542Z,62.38
2016-07-20T04:55:55.563Z,62.41
2016-07-20T04:56:56.295Z,62.57
2016-07-20T04:57:55.615Z,62.19
2016-07-20T04:58:56.342Z,62.19
2016-07-20T04:59:55.656Z,62.38
2016-07-20T05:00:56.391Z,62.38
2016-07-20T05:01:55.687Z,62.38
2016-07-20T05:02:56.422Z,62.22
2016-07-20T05:03:55.735Z,62.29
2016-07-20T05:04:56.465Z,62.19
2016-07-20T05:05:55.780Z,62.32
2016-07-20T05:06:55.804Z,62.29
2016-07-20T05:07:56.552Z,62.48
2016-07-20T05:08:55.848Z,62.19
2016-07-20T05:09:55.859Z,62.29
2016-07-20T05:10:56.595Z,62.38
2016-07-20T05:11:56.627Z,62.29
2016-07-20T05:12:56.648Z,62.19
2016-07-20T05:13:55.944Z,62.48
2016-07-20T05:14:55.970Z,62.19
2016-07-20T05:15:55.998Z,62.32
2016-07-20T05:16:56.019Z,62.9
2016-07-20T05:17:56.743Z,62.48
2016-07-20T05:18:56.061Z,62.9
2016-07-20T05:19:56.790Z,62.9
2016-07-20T05:20:56.090Z,62.38
2016-07-20T05:21:56.111Z,62.57
2016-07-20T05:22:56.141Z,62.9
2016-07-20T05:23:56.160Z,62.29
2016-07-20T05:24:56.178Z,62.67
2016-07-20T05:25:56.206Z,62.57
2016-07-20T05:26:56.217Z,62.57
2016-07-20T05:27:56.245Z,63.44
2016-07-20T05:28:56.260Z,66.24
2016-07-20T05:29:56.287Z,63.67
2016-07-20T05:30:56.307Z,66.62
2016-07-20T05:31:56.326Z,68.29
2016-07-20T05:32:56.343Z,69.6
2016-07-20T05:33:57.098Z,70.52
2016-07-20T05:34:57.110Z,71.29
2016-07-20T05:35:56.427Z,71.29
2016-07-20T05:36:56.427Z,71.77
2016-07-20T05:37:56.450Z,71.48
2016-07-20T05:38:56.521Z,71.67
2016-07-20T05:39:56.507Z,71.77
2016-07-20T05:40:56.518Z,71.77
2016-07-20T05:41:56.538Z,72.12
2016-07-20T05:42:56.559Z,72.64
2016-07-20T05:43:56.598Z,72.31
2016-07-20T05:44:56.609Z,71.96
2016-07-20T05:45:56.623Z,72.5
2016-07-20T05:46:56.647Z,72.34
2016-07-20T05:47:56.672Z,72.22
2016-07-20T05:48:56.699Z,72.25
2016-07-20T05:49:56.716Z,72.22
2016-07-20T05:50:56.730Z,72.6
2016-07-20T05:51:56.759Z,72.34
2016-07-20T05:52:56.779Z,72.64
2016-07-20T05:53:56.793Z,72.25
2016-07-20T05:54:56.827Z,72.41
2016-07-20T05:55:56.836Z,71.83
2016-07-20T05:56:56.860Z,72.02
2016-07-20T05:57:56.884Z,72.12
2016-07-20T05:58:56.912Z,72.06
2016-07-20T05:59:56.923Z,72.16
2016-07-20T06:00:56.940Z,71.96
2016-07-20T06:01:56.973Z,72.16
2016-07-20T06:02:56.997Z,71.64
2016-07-20T06:03:57.007Z,71.67
2016-07-20T06:04:57.755Z,71.87
2016-07-20T06:05:57.059Z,71.87
2016-07-20T06:06:57.081Z,71.83
2016-07-20T06:07:57.094Z,71.96
2016-07-20T06:08:57.118Z,71.58
2016-07-20T06:09:57.133Z,72.06
